Pagrindinis puslapis
METAR-TAF:

METAR-TAF

Oro uostai :

Hefėjus, Kinija

platuma: 31-52N, ilguma: 117-14E, Aukštis: 36 m

Dabartinis oras

Ataskaita buvo paskelbta 57 minutes, ne 15:00 UTC
Vėjas 4 kt iš Šiaurės/Šiaurės Rytų
Temperatūra 6°C
Drėgmė 100%
Slėgis 1020 hPa
Matomumas: 8000 m
Išsisklaidę debesys ne aukštis 2000 ft
Apsiniaukę ne aukštis 4000 ft

METAR: ZSOF 291500Z 03002MPS 8000 SCT020 OVC040 06/06 Q1020 NOSIG

Laikas: 23:57 (15:57 UTC)

Prognozė

Ataskaita buvo paskelbta 6 valandos ir 56 minutes, ne 09:01 UTC
Prognozė galioja nuo 29 metu 12 UTC su 30 metu 12 UTC
Vėjas 6 kt iš Rytų/Šiaurės Rytų
Matomumas: 6000 m
Išsisklaidę debesys ne aukštis 2000 ft

TAF: ZSOF 290901Z 2912/3012 07003MPS 6000 SCT020 TX11/3006Z TN04/2922Z

Orai ataskaitas ir orų prognozės (METAR, TAF).

turimą stotys yra geltonos ir raudonos taškus žemėlapyje.

Perkelti pele per norėdami pamatyti stoties vardą.

Tada spustelėkite, norėdami matyti oro stebėjimo ir prognozės.

Norėdami pakeisti žemėlapį: spustelėkite ant žalios mygtukų su juodo kryžiaus žemyn,; žalią mygtuką su brūkšneliu, jei norite nutolinti; arba žalių rodyklių gretimoms žemėlapius.


METAR-TAF: